Time;durP1;ratioP1;P1;durP2;ratioP2;P2;SDS_P1;SDS_P2;PMS_P1;PMS_P2;Temp;Humidity;BMP_temperature;BMP_pressure;BME280_temperature;BME280_humidity;BME280_pressure;Samples;Min_cycle;Max_cycle;Signal;HPM_P1;HPM_P2
2023/04/02 00:00:20;;;;;;;10.27;4.80;;;13.00;91.20;;;;;;7379114;19;20010;-73
2023/04/02 00:02:57;;;;;;;13.23;5.72;;;13.00;91.20;;;;;;7379344;19;20050;-72
2023/04/02 00:05:54;;;;;;;14.38;5.85;;;13.10;91.00;;;;;;7380090;19;20283;-72
2023/04/02 00:08:28;;;;;;;12.93;5.13;;;13.20;90.90;;;;;;7380843;19;20006;-72
2023/04/02 00:10:59;;;;;;;16.63;4.50;;;13.20;90.60;;;;;;7380582;19;20016;-73
2023/04/02 00:13:35;;;;;;;10.77;4.80;;;13.10;90.60;;;;;;7400000;19;20020;-72
2023/04/02 00:16:05;;;;;;;12.43;4.68;;;13.00;90.50;;;;;;7379085;19;19998;-72
2023/04/02 00:18:35;;;;;;;14.38;5.40;;;13.10;90.60;;;;;;7378411;19;20006;-72
2023/04/02 00:21:14;;;;;;;10.98;4.38;;;13.10;90.60;;;;;;7379292;19;20366;-72
2023/04/02 00:23:45;;;;;;;9.82;4.40;;;13.00;90.70;;;;;;7379616;19;20020;-72
2023/04/02 00:26:31;;;;;;;10.07;4.22;;;13.10;90.60;;;;;;7379773;19;20062;-72
2023/04/02 00:29:00;;;;;;;9.27;4.30;;;13.00;90.60;;;;;;7379200;19;20010;-72
2023/04/02 00:31:29;;;;;;;11.68;4.25;;;13.10;90.70;;;;;;7397256;19;20382;-72
2023/04/02 00:33:59;;;;;;;12.63;4.10;;;13.00;90.60;;;;;;7378200;19;20007;-72
2023/04/02 00:36:34;;;;;;;8.82;3.97;;;13.20;90.60;;;;;;7377933;19;20006;-72
2023/04/02 00:39:06;;;;;;;10.52;4.70;;;13.20;90.50;;;;;;7378742;19;20388;-72
2023/04/02 00:41:38;;;;;;;10.25;4.60;;;13.10;90.10;;;;;;7378900;19;20013;-72
2023/04/02 00:44:07;;;;;;;8.57;4.30;;;13.10;90.40;;;;;;7379022;19;20023;-72
2023/04/02 00:46:45;;;;;;;14.15;4.35;;;13.20;90.40;;;;;;7400508;19;20028;-72
2023/04/02 00:49:25;;;;;;;10.57;4.00;;;13.10;90.30;;;;;;7378327;19;20007;-72
2023/04/02 00:52:00;;;;;;;10.00;4.32;;;12.90;90.50;;;;;;7377834;19;20460;-73
2023/04/02 00:54:32;;;;;;;12.63;4.40;;;13.00;90.40;;;;;;7378409;19;20003;-72
2023/04/02 00:57:02;;;;;;;9.55;4.70;;;13.00;90.50;;;;;;7379269;19;20011;-73
2023/04/02 00:59:34;;;;;;;11.27;4.43;;;13.20;90.30;;;;;;7377548;19;20003;-71
2023/04/02 01:02:25;;;;;;;8.15;3.83;;;13.20;90.10;;;;;;7378170;19;20292;-72
2023/04/02 01:04:54;;;;;;;11.18;5.10;;;13.10;90.10;;;;;;7376636;19;20025;-72
2023/04/02 01:07:49;;;;;;;9.77;4.60;;;13.10;90.40;;;;;;7399515;19;20010;-72
2023/04/02 01:10:41;;;;;;;10.57;4.10;;;12.80;90.60;;;;;;7377698;19;20006;-72
2023/04/02 01:13:21;;;;;;;9.57;4.03;;;12.90;90.80;;;;;;7377686;19;20007;-72
2023/04/02 01:15:56;;;;;;;7.53;4.35;;;12.80;91.30;;;;;;7377494;19;20007;-72
2023/04/02 01:18:49;;;;;;;12.95;4.70;;;12.80;90.90;;;;;;7377007;19;20386;-72
2023/04/02 01:21:42;;;;;;;10.35;4.40;;;12.80;91.10;;;;;;7377866;19;20370;-72
2023/04/02 01:24:15;;;;;;;8.93;4.05;;;12.80;90.90;;;;;;7376608;19;20377;-72
2023/04/02 01:26:59;;;;;;;8.45;4.25;;;12.60;91.50;;;;;;7376548;19;20006;-71
2023/04/02 01:29:34;;;;;;;8.82;4.18;;;12.80;91.10;;;;;;7376179;19;20413;-71
2023/04/02 01:32:06;;;;;;;7.25;4.15;;;12.90;90.90;;;;;;7377487;19;20066;-72
2023/04/02 01:34:36;;;;;;;9.77;3.90;;;12.80;91.40;;;;;;7398902;19;20010;-71
2023/04/02 01:37:21;;;;;;;8.80;3.33;;;12.80;91.00;;;;;;7376773;19;20418;-72
2023/04/02 01:40:07;;;;;;;6.18;2.90;;;12.70;90.70;;;;;;7374514;19;20491;-71
2023/04/02 01:42:40;;;;;;;6.10;3.05;;;12.50;91.10;;;;;;7376895;19;20007;-72
2023/04/02 01:45:15;;;;;;;6.43;3.10;;;12.50;91.30;;;;;;7384616;19;20011;-72
2023/04/02 01:47:45;;;;;;;5.78;2.65;;;12.60;91.30;;;;;;7382845;19;20174;-72
2023/04/02 01:50:24;;;;;;;5.63;3.10;;;12.70;91.20;;;;;;7384747;19;20027;-72
2023/04/02 01:52:57;;;;;;;6.78;3.25;;;12.70;91.30;;;;;;7383809;19;20006;-71
2023/04/02 01:55:32;;;;;;;7.70;3.50;;;12.60;91.30;;;;;;7403498;19;20014;-71
2023/04/02 01:58:02;;;;;;;10.20;3.53;;;12.60;91.50;;;;;;7383694;19;20013;-71
2023/04/02 02:00:35;;;;;;;7.57;3.30;;;12.70;91.40;;;;;;7383077;19;20689;-71
2023/04/02 02:03:07;;;;;;;8.95;3.65;;;12.60;91.60;;;;;;7383003;19;20006;-71
2023/04/02 02:05:36;;;;;;;9.38;3.35;;;12.50;91.80;;;;;;7384195;19;20011;-72
2023/04/02 02:08:04;;;;;;;9.32;3.22;;;12.60;92.00;;;;;;7381966;19;20003;-72
2023/04/02 02:10:37;;;;;;;8.10;3.35;;;12.70;92.10;;;;;;7402615;19;20224;-71
2023/04/02 02:13:06;;;;;;;5.57;3.30;;;12.60;91.80;;;;;;7383303;19;20315;-72
2023/04/02 02:15:40;;;;;;;5.75;3.00;;;12.50;92.00;;;;;;7383422;19;20014;-72
2023/04/02 02:18:12;;;;;;;5.63;3.25;;;12.50;92.10;;;;;;7384015;19;20044;-72
2023/04/02 02:20:41;;;;;;;5.38;3.15;;;12.40;91.80;;;;;;7382274;19;20003;-72
2023/04/02 02:23:14;;;;;;;11.15;2.97;;;12.60;92.00;;;;;;7383922;19;20009;-72
2023/04/02 02:25:43;;;;;;;4.60;2.97;;;12.60;91.60;;;;;;7403317;19;20357;-72
2023/04/02 02:28:16;;;;;;;5.85;2.78;;;12.30;91.80;;;;;;7382558;19;20232;-72
2023/04/02 02:30:50;;;;;;;7.55;3.15;;;12.20;92.10;;;;;;7382871;19;20017;-72
2023/04/02 02:33:24;;;;;;;8.55;3.28;;;12.30;92.30;;;;;;7382215;19;20007;-72
2023/04/02 02:35:59;;;;;;;5.13;2.72;;;12.40;92.70;;;;;;7382958;19;20011;-71
2023/04/02 02:38:40;;;;;;;4.25;2.60;;;12.40;92.40;;;;;;7382735;19;20007;-72
2023/04/02 02:41:14;;;;;;;5.88;3.13;;;12.20;92.60;;;;;;7383356;19;20027;-72
2023/04/02 02:43:48;;;;;;;7.38;3.05;;;12.30;92.40;;;;;;7402434;19;20025;-72
2023/04/02 02:46:24;;;;;;;7.57;2.83;;;12.60;92.40;;;;;;7382203;19;20211;-72
2023/04/02 02:48:55;;;;;;;6.07;3.15;;;12.70;92.40;;;;;;7382264;19;20010;-71
2023/04/02 02:51:26;;;;;;;;;;;12.80;92.30;;;;;;7382989;19;20082;-72
2023/04/02 02:54:00;;;;;;;7.93;2.85;;;12.70;92.60;;;;;;7381735;19;19914;-71
2023/04/02 02:56:31;;;;;;;3.78;2.75;;;12.80;92.80;;;;;;7382623;19;20246;-72
2023/04/02 02:59:00;;;;;;;10.75;2.95;;;12.70;92.90;;;;;;7382710;19;20010;-72
2023/04/02 03:01:33;;;;;;;5.18;2.90;;;12.50;93.40;;;;;;7403531;19;20362;-72
2023/04/02 03:04:03;;;;;;;8.88;2.28;;;12.60;93.30;;;;;;7381946;19;20031;-71
2023/04/02 03:06:31;;;;;;;6.60;2.28;;;12.40;93.40;;;;;;7382537;19;20389;-72
2023/04/02 03:09:11;;;;;;;4.38;1.90;;;12.30;93.60;;;;;;7381942;19;20019;-72
2023/04/02 03:11:45;;;;;;;3.13;1.65;;;12.30;93.50;;;;;;7381888;19;20422;-72
2023/04/02 03:14:24;;;;;;;3.90;1.90;;;12.40;93.30;;;;;;7381645;19;20020;-71
2023/04/02 03:17:01;;;;;;;3.58;1.50;;;12.10;93.60;;;;;;7379237;19;20609;-72
2023/04/02 03:19:36;;;;;;;2.45;1.55;;;12.10;93.90;;;;;;7401870;19;20023;-72
2023/04/02 03:22:11;;;;;;;3.80;1.90;;;12.20;94.20;;;;;;7381215;19;20018;-72
2023/04/02 03:24:47;;;;;;;2.70;1.80;;;12.20;94.20;;;;;;7381126;19;20013;-72
2023/04/02 03:27:19;;;;;;;6.05;2.08;;;12.10;94.40;;;;;;7380674;19;20626;-72
2023/04/02 03:29:56;;;;;;;6.07;1.35;;;12.00;94.50;;;;;;7381455;19;20243;-72
2023/04/02 03:32:30;;;;;;;3.35;1.52;;;12.10;94.50;;;;;;7380677;19;20006;-72
2023/04/02 03:35:03;;;;;;;4.80;1.38;;;11.70;94.20;;;;;;7380963;19;20350;-72
2023/04/02 03:37:34;;;;;;;4.53;1.45;;;11.70;94.60;;;;;;7403201;19;20285;-73
2023/04/02 03:40:08;;;;;;;2.83;1.60;;;11.80;94.40;;;;;;7379563;19;20024;-73
2023/04/02 03:42:43;;;;;;;2.97;1.58;;;11.80;94.60;;;;;;7380771;19;20002;-73
2023/04/02 03:45:18;;;;;;;3.85;1.60;;;11.90;94.40;;;;;;7381386;19;20070;-73
2023/04/02 03:47:54;;;;;;;3.17;1.67;;;11.80;94.40;;;;;;7381647;19;20010;-71
2023/04/02 03:50:28;;;;;;;3.92;1.50;;;11.60;94.60;;;;;;7380982;19;20020;-72
2023/04/02 03:52:59;;;;;;;4.50;1.80;;;11.80;94.60;;;;;;7380460;19;20006;-73
2023/04/02 03:55:31;;;;;;;2.87;1.77;;;11.70;94.30;;;;;;7401828;19;20279;-73
2023/04/02 03:58:04;;;;;;;2.33;1.80;;;11.70;94.60;;;;;;7379730;19;20207;-73
2023/04/02 04:00:38;;;;;;;2.08;1.80;;;11.70;94.60;;;;;;7378427;19;20425;-72
2023/04/02 04:03:15;;;;;;;4.80;1.92;;;11.80;94.70;;;;;;7380105;19;20235;-71
2023/04/02 04:05:50;;;;;;;6.38;2.38;;;11.70;94.40;;;;;;7377597;19;20006;-72
2023/04/02 04:08:22;;;;;;;3.40;2.28;;;11.60;94.70;;;;;;7380485;19;20623;-71
2023/04/02 04:10:54;;;;;;;3.05;1.92;;;11.90;94.70;;;;;;7381030;19;20637;-72
2023/04/02 04:13:29;;;;;;;4.18;2.85;;;12.00;94.50;;;;;;7402074;19;20013;-72
2023/04/02 04:16:05;;;;;;;5.13;2.67;;;11.80;94.10;;;;;;7381572;19;20285;-73
2023/04/02 04:18:44;;;;;;;6.10;2.55;;;11.90;94.50;;;;;;7381000;19;20062;-73
2023/04/02 04:21:21;;;;;;;9.15;3.08;;;12.10;94.30;;;;;;7379239;19;20023;-72
2023/04/02 04:23:52;;;;;;;6.78;3.03;;;11.90;94.00;;;;;;7379492;19;20024;-72
2023/04/02 04:26:25;;;;;;;7.15;3.65;;;12.10;94.00;;;;;;7378733;19;20019;-72
2023/04/02 04:29:04;;;;;;;7.18;3.10;;;12.00;93.70;;;;;;7378820;19;20372;-72
2023/04/02 04:31:40;;;;;;;5.47;3.28;;;12.00;93.80;;;;;;7400222;19;20093;-72
2023/04/02 04:34:17;;;;;;;11.05;3.90;;;12.10;93.70;;;;;;7378842;19;20249;-72
2023/04/02 04:36:53;;;;;;;8.35;3.60;;;12.10;93.40;;;;;;7378456;19;20002;-73
2023/04/02 04:39:28;;;;;;;6.85;3.50;;;12.00;93.10;;;;;;7379220;19;20090;-73
2023/04/02 04:42:00;;;;;;;7.40;3.78;;;12.00;93.20;;;;;;7378470;19;20263;-73
2023/04/02 04:44:41;;;;;;;9.98;4.10;;;11.80;93.30;;;;;;7378986;19;20024;-72
2023/04/02 04:47:13;;;;;;;12.57;4.25;;;11.90;93.50;;;;;;7379329;19;20057;-73
2023/04/02 04:49:48;;;;;;;18.17;4.65;;;11.70;93.30;;;;;;7400372;19;20031;-73
2023/04/02 04:52:22;;;;;;;12.90;4.18;;;11.50;93.60;;;;;;7378445;19;20059;-73
2023/04/02 04:54:50;;;;;;;15.75;4.88;;;11.20;94.10;;;;;;7378074;19;20019;-72
2023/04/02 04:57:30;;;;;;;17.00;5.63;;;11.20;94.20;;;;;;7378166;19;20048;-71
2023/04/02 05:00:08;;;;;;;14.23;5.15;;;11.20;94.80;;;;;;7378341;19;20007;-72
2023/04/02 05:02:46;;;;;;;17.08;5.57;;;11.50;93.90;;;;;;7378797;19;19999;-71
2023/04/02 05:05:28;;;;;;;16.23;5.40;;;11.70;93.80;;;;;;7380770;19;19999;-73
2023/04/02 05:08:02;;;;;;;12.73;5.30;;;11.60;93.40;;;;;;7381927;19;20011;-73
2023/04/02 05:10:39;;;;;;;17.58;5.70;;;11.70;93.80;;;;;;7402630;19;20268;-73
2023/04/02 05:13:15;;;;;;;10.40;5.05;;;11.50;93.90;;;;;;7378305;19;20362;-73
2023/04/02 05:15:50;;;;;;;19.45;5.93;;;11.70;93.80;;;;;;7377419;19;20064;-73
2023/04/02 05:18:25;;;;;;;17.58;6.32;;;11.70;93.40;;;;;;7383538;19;20325;-72
2023/04/02 05:21:02;;;;;;;16.75;5.40;;;11.90;93.60;;;;;;7386728;19;20295;-73
2023/04/02 05:23:35;;;;;;;17.73;6.03;;;12.10;93.10;;;;;;7386091;19;20250;-73
2023/04/02 05:26:09;;;;;;;18.77;6.63;;;12.00;92.90;;;;;;7386938;19;20006;-73
2023/04/02 05:28:44;;;;;;;15.27;5.80;;;12.10;92.80;;;;;;7406632;19;20393;-72
2023/04/02 05:31:18;;;;;;;18.92;6.72;;;12.00;92.70;;;;;;7385109;19;20034;-72
2023/04/02 05:33:49;;;;;;;27.20;6.97;;;12.20;92.60;;;;;;7384815;19;20034;-72
2023/04/02 05:36:26;;;;;;;18.20;6.35;;;11.90;92.80;;;;;;7385170;19;20264;-72
2023/04/02 05:38:58;;;;;;;18.55;6.22;;;11.90;92.80;;;;;;7383399;19;20022;-72
2023/04/02 05:41:30;;;;;;;22.45;7.00;;;12.00;93.00;;;;;;7383513;19;20003;-72
2023/04/02 05:44:07;;;;;;;16.73;6.15;;;12.00;93.20;;;;;;7384944;19;20013;-72
2023/04/02 05:46:39;;;;;;;15.98;6.25;;;12.20;92.80;;;;;;7406235;19;20414;-72
2023/04/02 05:49:15;;;;;;;23.85;7.22;;;12.10;92.70;;;;;;7384102;19;19999;-72
2023/04/02 05:51:51;;;;;;;28.67;7.20;;;12.40;92.50;;;;;;7383117;19;20019;-72
2023/04/02 05:54:26;;;;;;;19.23;6.80;;;12.10;92.50;;;;;;7384482;19;20023;-72
2023/04/02 05:56:59;;;;;;;19.90;7.32;;;12.30;92.50;;;;;;7382837;19;20389;-72
2023/04/02 05:59:31;;;;;;;19.42;7.03;;;12.40;92.50;;;;;;7385033;19;20002;-72
2023/04/02 06:02:03;;;;;;;21.90;6.25;;;12.50;92.40;;;;;;7384515;19;20018;-72
2023/04/02 06:04:38;;;;;;;15.68;6.40;;;12.50;92.70;;;;;;7403201;19;20014;-73
2023/04/02 06:07:14;;;;;;;22.77;7.20;;;12.40;92.10;;;;;;7383218;19;20260;-73
2023/04/02 06:09:47;;;;;;;20.30;7.00;;;12.30;92.30;;;;;;7383031;19;20033;-73
2023/04/02 06:12:24;;;;;;;16.85;6.90;;;12.50;92.30;;;;;;7383035;19;20456;-73
2023/04/02 06:14:52;;;;;;;17.17;6.40;;;12.30;92.30;;;;;;7384301;19;20010;-73
2023/04/02 06:17:22;;;;;;;21.17;7.20;;;12.20;92.10;;;;;;7387022;19;20010;-72
2023/04/02 06:19:54;;;;;;;21.42;7.68;;;12.00;92.60;;;;;;7386758;19;20119;-72
2023/04/02 06:22:34;;;;;;;17.08;7.00;;;12.10;92.60;;;;;;7406472;19;20010;-73
2023/04/02 06:25:06;;;;;;;13.55;6.22;;;12.00;93.10;;;;;;7383557;19;20019;-72
2023/04/02 06:27:36;;;;;;;17.63;6.35;;;12.10;93.00;;;;;;7382594;19;20006;-71
2023/04/02 06:30:08;;;;;;;19.70;6.80;;;11.90;93.00;;;;;;7382000;19;20027;-72
2023/04/02 06:32:37;;;;;;;15.55;6.50;;;12.10;93.10;;;;;;7381571;19;20212;-72
2023/04/02 06:35:07;;;;;;;20.08;5.90;;;12.10;93.50;;;;;;7383892;19;20024;-72
2023/04/02 06:37:41;;;;;;;26.40;6.43;;;12.00;93.40;;;;;;7407543;19;20011;-72
2023/04/02 06:40:29;;;;;;;13.52;5.13;;;12.20;93.20;;;;;;7385164;19;20052;-72
2023/04/02 06:43:01;;;;;;;13.98;5.30;;;12.00;93.40;;;;;;7382283;19;19998;-72
2023/04/02 06:45:33;;;;;;;11.52;4.63;;;11.80;93.20;;;;;;7383593;19;20038;-72
2023/04/02 06:48:05;;;;;;;11.25;5.35;;;11.80;93.50;;;;;;7382555;19;20031;-72
2023/04/02 06:50:37;;;;;;;;;;;12.00;93.60;;;;;;7383291;19;20012;-73
2023/04/02 06:53:11;;;;;;;13.00;4.70;;;12.10;93.60;;;;;;7380814;19;20155;-72
2023/04/02 06:55:45;;;;;;;17.05;5.07;;;11.80;93.40;;;;;;7405686;19;20016;-72
2023/04/02 06:58:15;;;;;;;11.90;5.15;;;11.90;93.40;;;;;;7381831;19;20021;-72
2023/04/02 07:00:46;;;;;;;18.38;5.18;;;12.10;93.30;;;;;;7381029;19;20013;-72
2023/04/02 07:03:18;;;;;;;11.57;5.50;;;12.10;93.30;;;;;;7381212;19;20496;-72
2023/04/02 07:05:47;;;;;;;20.08;6.43;;;12.20;93.20;;;;;;7381970;19;20007;-71
2023/04/02 07:08:18;;;;;;;16.55;5.95;;;12.00;93.20;;;;;;7380964;19;20010;-72
2023/04/02 07:10:47;;;;;;;23.90;6.57;;;12.10;95.00;;;;;;7404339;19;20251;-71
2023/04/02 07:13:17;;;;;;;142.50;9.65;;;12.10;94.30;;;;;;7381823;19;20006;-71
2023/04/02 07:15:47;;;;;;;20.80;7.22;;;12.10;93.70;;;;;;7381990;19;20058;-72
2023/04/02 07:18:25;;;;;;;139.93;8.63;;;12.30;93.90;;;;;;7382257;19;20006;-72
2023/04/02 07:20:54;;;;;;;24.60;6.40;;;12.10;93.50;;;;;;7380348;19;20010;-72
2023/04/02 07:23:25;;;;;;;87.10;7.65;;;11.90;93.50;;;;;;7379998;19;20016;-71
2023/04/02 07:25:54;;;;;;;;;;;11.70;93.80;;;;;;7381948;19;20016;-71
2023/04/02 07:28:25;;;;;;;15.45;5.50;;;11.80;94.00;;;;;;7405728;19;19942;-71
2023/04/02 07:30:54;;;;;;;12.13;5.55;;;12.00;93.70;;;;;;7368850;19;20377;-71
2023/04/02 07:33:25;;;;;;;15.40;5.97;;;12.00;93.40;;;;;;7407764;19;20058;-72
2023/04/02 07:35:56;;;;;;;16.17;5.70;;;11.60;93.50;;;;;;7382241;19;20007;-72
2023/04/02 07:38:27;;;;;;;16.27;6.22;;;11.70;93.70;;;;;;7382097;19;20031;-73
2023/04/02 07:40:56;;;;;;;21.52;6.25;;;11.90;93.50;;;;;;7379006;19;20011;-72
2023/04/02 07:43:25;;;;;;;12.70;5.90;;;11.80;93.60;;;;;;7382282;19;20006;-72
2023/04/02 07:45:54;;;;;;;13.93;5.80;;;12.00;93.90;;;;;;7383786;19;20019;-73
2023/04/02 07:48:24;;;;;;;18.38;5.60;;;12.10;93.50;;;;;;7405182;19;20220;-71
2023/04/02 07:50:52;;;;;;;17.95;5.97;;;12.00;93.30;;;;;;7383985;19;20047;-71
2023/04/02 07:53:31;;;;;;;15.57;5.50;;;12.10;93.40;;;;;;7383382;19;20380;-72
2023/04/02 07:56:02;;;;;;;14.38;5.75;;;12.00;93.50;;;;;;7381351;19;20023;-72
2023/04/02 07:58:32;;;;;;;14.77;6.07;;;12.20;93.70;;;;;;7380550;19;20385;-72
2023/04/02 08:01:02;;;;;;;13.02;6.07;;;12.10;93.20;;;;;;7381332;19;20006;-73
2023/04/02 08:03:31;;;;;;;21.55;6.32;;;12.00;93.30;;;;;;7379863;19;20035;-73
2023/04/02 08:06:01;;;;;;;14.02;6.20;;;12.00;93.50;;;;;;7402647;19;20059;-73
2023/04/02 08:08:32;;;;;;;14.43;6.75;;;11.90;93.50;;;;;;7381343;19;20056;-73
2023/04/02 08:11:01;;;;;;;19.35;6.55;;;12.10;93.50;;;;;;7381861;19;20006;-72
2023/04/02 08:13:30;;;;;;;21.35;6.82;;;11.90;93.20;;;;;;7380663;19;20007;-73
2023/04/02 08:16:00;;;;;;;15.02;6.55;;;12.20;93.40;;;;;;7380420;19;20010;-73
2023/04/02 08:18:29;;;;;;;18.60;6.55;;;12.40;93.30;;;;;;7398729;19;20003;-73
2023/04/02 08:20:58;;;;;;;22.45;6.88;;;12.30;93.00;;;;;;7402453;19;20293;-73
2023/04/02 08:23:27;;;;;;;21.27;6.93;;;12.20;93.10;;;;;;7381272;19;20013;-72
2023/04/02 08:25:58;;;;;;;15.80;6.45;;;12.10;93.40;;;;;;7381148;19;20361;-72
2023/04/02 08:28:30;;;;;;;15.88;7.15;;;11.90;93.40;;;;;;7381735;19;20496;-72
2023/04/02 08:30:59;;;;;;;15.52;6.30;;;12.20;93.50;;;;;;7381450;19;20295;-72
2023/04/02 08:33:27;;;;;;;20.98;6.78;;;12.20;93.20;;;;;;7403258;19;20006;-72
2023/04/02 08:35:56;;;;;;;18.63;7.55;;;12.20;93.10;;;;;;7380669;19;20014;-72
2023/04/02 08:38:25;;;;;;;16.20;7.03;;;12.20;93.00;;;;;;7380893;19;20038;-71
2023/04/02 08:41:00;;;;;;;21.38;7.50;;;12.10;93.10;;;;;;7383536;19;20013;-72
2023/04/02 08:44:01;;;;;;;17.80;7.80;;;11.80;93.20;;;;;;7384845;19;20042;-72
2023/04/02 08:46:36;;;;;;;16.05;8.02;;;11.80;93.50;;;;;;7380054;19;20356;-72
2023/04/02 08:49:14;;;;;;;19.50;7.13;;;11.90;93.40;;;;;;7380813;19;20369;-72
2023/04/02 08:51:43;;;;;;;21.52;8.57;;;11.90;93.30;;;;;;7378178;19;20003;-72
2023/04/02 08:54:20;;;;;;;17.42;7.07;;;11.80;93.30;;;;;;7402436;19;20014;-72
2023/04/02 08:56:56;;;;;;;21.02;7.40;;;11.60;93.60;;;;;;7380569;19;20019;-72
2023/04/02 08:59:33;;;;;;;26.02;7.63;;;11.80;93.60;;;;;;7383366;19;20006;-72
2023/04/02 09:02:17;;;;;;;19.42;7.50;;;11.70;93.70;;;;;;7382500;19;20015;-72
2023/04/02 09:04:46;;;;;;;16.85;6.43;;;11.70;93.50;;;;;;7382989;19;20402;-72
2023/04/02 09:07:18;;;;;;;16.58;6.20;;;11.90;93.50;;;;;;7379123;19;20010;-72
2023/04/02 09:09:50;;;;;;;13.32;5.85;;;12.10;93.30;;;;;;7380967;19;20365;-72
2023/04/02 09:12:25;;;;;;;11.82;5.93;;;12.20;92.70;;;;;;7401701;19;20222;-71
2023/04/02 09:15:08;;;;;;;14.85;6.13;;;11.90;92.70;;;;;;7379621;19;20018;-72
2023/04/02 09:17:36;;;;;;;9.82;5.88;;;12.10;92.70;;;;;;7379409;19;20010;-72
2023/04/02 09:20:18;;;;;;;15.88;6.53;;;12.50;92.80;;;;;;7378932;19;20003;-73
2023/04/02 09:22:49;;;;;;;85.10;10.02;;;12.60;92.70;;;;;;7379655;19;20050;-72
2023/04/02 09:25:20;;;;;;;;;;;12.30;93.00;;;;;;7381077;19;20063;-72
2023/04/02 09:27:54;;;;;;;17.10;7.03;;;12.40;93.20;;;;;;7378031;19;20273;-72
2023/04/02 09:30:31;;;;;;;14.02;6.75;;;12.30;92.70;;;;;;7401302;19;20006;-73
2023/04/02 09:33:02;;;;;;;18.15;8.15;;;12.50;92.70;;;;;;7377968;19;20003;-73
2023/04/02 09:35:32;;;;;;;;;;;12.50;92.20;;;;;;7379868;19;20011;-73
2023/04/02 09:38:17;;;;;;;19.23;7.82;;;12.80;92.20;;;;;;7379974;19;19916;-72
2023/04/02 09:40:51;;;;;;;16.25;7.93;;;12.70;91.60;;;;;;7381523;19;20005;-73
2023/04/02 09:43:24;;;;;;;23.13;8.60;;;12.50;92.00;;;;;;7380769;19;20002;-73
2023/04/02 09:45:59;;;;;;;23.02;9.15;;;12.50;92.20;;;;;;7379881;19;20024;-73
2023/04/02 09:48:31;;;;;;;21.45;8.98;;;12.40;92.60;;;;;;7400903;19;20003;-72
2023/04/02 09:51:16;;;;;;;20.60;8.40;;;12.50;92.30;;;;;;7380315;19;20013;-72
2023/04/02 09:53:48;;;;;;;20.80;8.93;;;12.70;92.20;;;;;;7381551;19;20003;-72
2023/04/02 09:56:20;;;;;;;25.63;10.95;;;12.60;92.10;;;;;;7380778;19;20251;-73
2023/04/02 09:59:05;;;;;;;41.97;16.95;;;12.60;92.20;;;;;;7381249;19;20026;-72
2023/04/02 10:01:36;;;;;;;23.42;8.65;;;12.50;92.30;;;;;;7377664;19;20023;-73
2023/04/02 10:04:07;;;;;;;21.08;9.43;;;12.60;92.30;;;;;;7380835;19;20062;-73
2023/04/02 10:06:36;;;;;;;24.17;9.15;;;12.50;92.20;;;;;;7383788;19;20014;-73
2023/04/02 10:09:31;;;;;;;32.13;10.05;;;11.80;92.60;;;;;;7406785;19;20231;-72
2023/04/02 10:12:01;;;;;;;24.90;10.18;;;11.70;93.30;;;;;;7388600;19;20378;-73
2023/04/02 10:14:37;;;;;;;32.20;9.48;;;11.90;93.00;;;;;;7387517;19;19999;-73
2023/04/02 10:17:14;;;;;;;28.98;8.90;;;11.90;92.50;;;;;;7386978;19;20223;-73
2023/04/02 10:19:47;;;;;;;31.90;9.23;;;12.20;92.40;;;;;;7382944;19;20011;-72
2023/04/02 10:31:24;;;;;;;33.88;6.65;;;11.90;91.70;;;;;;7271100;19;20010;-72
2023/04/02 10:33:58;;;;;;;24.55;6.43;;;12.00;91.80;;;;;;7372719;19;20003;-71
2023/04/02 10:36:45;;;;;;;18.52;6.05;;;11.80;92.20;;;;;;7409586;19;20051;-72
2023/04/02 10:39:17;;;;;;;25.80;5.70;;;12.10;91.80;;;;;;7385167;19;20007;-72
2023/04/02 10:41:56;;;;;;;26.55;6.75;;;12.10;91.50;;;;;;7383557;19;20039;-73
2023/04/02 10:44:40;;;;;;;18.48;6.22;;;12.40;91.40;;;;;;7385040;19;20002;-72
2023/04/02 10:47:31;;;;;;;31.75;7.68;;;12.60;90.90;;;;;;7386564;19;20006;-73
2023/04/02 10:50:11;;;;;;;25.65;8.35;;;12.00;91.20;;;;;;7385869;19;20003;-72
2023/04/02 10:52:44;;;;;;;22.75;7.30;;;11.90;91.60;;;;;;7387068;19;20030;-73
2023/04/02 10:55:19;;;;;;;25.75;7.85;;;12.00;91.80;;;;;;7386072;19;20014;-72
2023/04/02 10:57:48;;;;;;;36.25;8.35;;;12.10;91.90;;;;;;7403610;19;20519;-73
2023/04/02 11:00:23;;;;;;;21.75;8.25;;;12.40;92.20;;;;;;7384190;19;20002;-72
2023/04/02 11:02:59;;;;;;;36.75;9.60;;;12.40;91.50;;;;;;7382096;19;20023;-72
2023/04/02 11:05:35;;;;;;;23.20;9.10;;;12.20;91.60;;;;;;7384474;19;20007;-72
2023/04/02 11:08:08;;;;;;;26.55;8.10;;;12.40;92.10;;;;;;7382909;19;20022;-72
2023/04/02 11:10:41;;;;;;;25.52;7.80;;;12.30;91.60;;;;;;7382988;19;20003;-71
2023/04/02 11:13:18;;;;;;;24.00;7.88;;;12.30;91.70;;;;;;7381774;19;20007;-72
2023/04/02 11:15:46;;;;;;;27.83;7.70;;;12.50;91.30;;;;;;7402741;19;20389;-76
2023/04/02 11:18:33;;;;;;;35.15;8.82;;;12.60;91.00;;;;;;7383774;19;20252;-71
2023/04/02 11:21:04;;;;;;;26.42;8.55;;;12.90;91.40;;;;;;7383559;19;20245;-72
2023/04/02 11:23:40;;;;;;;22.75;8.10;;;13.10;90.90;;;;;;7383014;19;20027;-72
2023/04/02 11:26:36;;;;;;;29.17;8.50;;;13.20;91.10;;;;;;7383949;19;20076;-72
2023/04/02 11:29:19;;;;;;;26.30;8.85;;;13.20;90.30;;;;;;7386013;19;20006;-72
2023/04/02 11:31:49;;;;;;;25.50;7.45;;;13.00;90.90;;;;;;7383129;19;20006;-72
2023/04/02 11:34:56;;;;;;;21.15;7.68;;;13.00;90.60;;;;;;7384777;19;19992;-72
2023/04/02 11:37:37;;;;;;;26.08;7.65;;;12.90;90.70;;;;;;7383833;19;20248;-72
2023/04/02 11:40:24;;;;;;;29.25;8.15;;;12.70;91.00;;;;;;7383319;19;20011;-73
2023/04/02 11:42:53;;;;;;;21.85;7.25;;;12.70;91.00;;;;;;7406510;19;20003;-72
2023/04/02 11:45:52;;;;;;;28.73;8.00;;;12.70;91.10;;;;;;7385686;19;20027;-72
2023/04/02 11:48:32;;;;;;;32.78;7.53;;;12.80;91.20;;;;;;7385603;19;20231;-72
2023/04/02 11:51:33;;;;;;;33.55;7.68;;;12.50;91.10;;;;;;7383265;19;20010;-72
2023/04/02 11:54:02;;;;;;;23.07;6.50;;;12.70;91.50;;;;;;7382527;19;20373;-73
2023/04/02 11:56:37;;;;;;;29.42;7.78;;;12.80;90.90;;;;;;7382754;19;20272;-72
2023/04/02 11:59:16;;;;;;;27.83;6.72;;;12.80;90.60;;;;;;7382264;19;20421;-72
2023/04/02 12:02:01;;;;;;;26.08;7.38;;;12.90;90.30;;;;;;7383979;19;19999;-73
2023/04/02 12:04:56;;;;;;;36.60;6.82;;;12.90;90.40;;;;;;7384166;19;20017;-72
2023/04/02 12:07:50;;;;;;;28.60;7.30;;;12.70;90.40;;;;;;7382811;19;20019;-72
2023/04/02 12:10:21;;;;;;;25.25;6.57;;;12.60;90.50;;;;;;7381671;19;20391;-72
2023/04/02 12:12:50;;;;;;;27.48;6.82;;;12.70;90.70;;;;;;7401147;19;20016;-72
2023/04/02 12:15:39;;;;;;;22.75;6.85;;;12.40;90.50;;;;;;7381398;19;20045;-73
2023/04/02 12:18:15;;;;;;;30.35;7.10;;;12.40;91.10;;;;;;7381235;19;19998;-72
2023/04/02 12:20:51;;;;;;;25.02;7.40;;;12.50;90.70;;;;;;7381260;19;20031;-73
2023/04/02 12:23:28;;;;;;;26.90;7.13;;;12.60;90.60;;;;;;7382043;19;20006;-73
2023/04/02 12:26:02;;;;;;;31.70;7.32;;;12.40;90.50;;;;;;7380415;19;20010;-73
2023/04/02 12:28:32;;;;;;;26.95;7.45;;;12.40;90.70;;;;;;7378737;19;19999;-72
2023/04/02 12:31:07;;;;;;;38.63;10.35;;;12.40;90.70;;;;;;7380359;19;20006;-72
2023/04/02 12:33:38;;;;;;;25.77;8.55;;;12.60;90.60;;;;;;7402551;19;20071;-71
2023/04/02 12:36:18;;;;;;;32.17;7.90;;;12.80;90.30;;;;;;7380789;19;20011;-73
2023/04/02 12:38:52;;;;;;;27.10;8.10;;;12.70;90.10;;;;;;7380627;19;20405;-72
2023/04/02 12:41:26;;;;;;;28.55;7.82;;;12.80;90.10;;;;;;7380248;19;20013;-72
2023/04/02 12:44:01;;;;;;;25.75;7.90;;;12.60;90.30;;;;;;7380212;19;20007;-75
2023/04/02 12:46:31;;;;;;;26.63;8.75;;;12.40;90.70;;;;;;7381272;19;20024;-73
2023/04/02 12:49:06;;;;;;;28.02;8.05;;;12.20;90.80;;;;;;7381531;19;20019;-74
2023/04/02 12:51:37;;;;;;;26.52;7.50;;;12.20;90.90;;;;;;7402077;19;19999;-74
2023/04/02 12:54:16;;;;;;;25.17;8.75;;;12.50;90.50;;;;;;7382254;19;20247;-73
2023/04/02 12:56:45;;;;;;;26.20;8.93;;;12.30;90.30;;;;;;7382374;19;20035;-73
2023/04/02 12:59:30;;;;;;;28.42;8.35;;;12.30;90.60;;;;;;7382163;19;20035;-73
2023/04/02 13:02:01;;;;;;;25.05;8.07;;;12.30;90.60;;;;;;7380751;19;20049;-73
2023/04/02 13:04:30;;;;;;;34.35;9.18;;;12.30;90.40;;;;;;7380743;19;20023;-73
2023/04/02 13:06:59;;;;;;;32.97;8.68;;;12.20;90.70;;;;;;7383756;19;20260;-73
2023/04/02 13:09:37;;;;;;;31.27;8.15;;;12.20;90.60;;;;;;7402070;19;20015;-73
2023/04/02 13:12:07;;;;;;;35.22;9.70;;;12.30;90.80;;;;;;7380644;19;20011;-73
2023/04/02 13:14:36;;;;;;;30.05;9.20;;;12.60;90.60;;;;;;7381172;19;20014;-73
2023/04/02 13:17:05;;;;;;;33.83;8.30;;;12.90;90.40;;;;;;7381064;19;20020;-74
2023/04/02 13:19:34;;;;;;;29.15;8.50;;;12.90;90.10;;;;;;7382317;19;20026;-73
2023/04/02 13:22:05;;;;;;;29.00;8.07;;;12.80;90.10;;;;;;7380053;19;20053;-73
2023/04/02 13:24:37;;;;;;;31.48;7.93;;;12.80;90.10;;;;;;7402388;19;20369;-73
2023/04/02 13:27:07;;;;;;;31.00;8.40;;;12.70;90.20;;;;;;7379939;19;20002;-73